Time;durP1;ratioP1;P1;durP2;ratioP2;P2;SDS_P1;SDS_P2;PMS_P1;PMS_P2;Temp;Humidity;BMP_temperature;BMP_pressure;BME280_temperature;BME280_humidity;BME280_pressure;Samples;Min_cycle;Max_cycle;Signal;HPM_P1;HPM_P2
2022/06/20 00:01:18;;;;;;;4.97;1.75;;;14.40;99.90;;;;;;5074490;28;20044;-90
2022/06/20 00:03:57;;;;;;;3.92;1.35;;;15.20;99.90;;;;;;5073262;28;20047;-88
2022/06/20 00:06:28;;;;;;;3.90;1.50;;;14.00;99.90;;;;;;5072559;28;20115;-90
2022/06/20 00:09:07;;;;;;;5.03;1.27;;;14.70;99.90;;;;;;5084838;28;20044;-89
2022/06/20 00:11:45;;;;;;;5.18;1.27;;;15.70;99.90;;;;;;5078366;28;20607;-88
2022/06/20 00:14:19;;;;;;;4.93;1.30;;;14.70;99.90;;;;;;5096495;28;20044;-89
2022/06/20 00:16:47;;;;;;;4.78;1.20;;;14.70;99.90;;;;;;5077600;28;20197;-90
2022/06/20 00:19:21;;;;;;;4.88;1.85;;;14.70;99.90;;;;;;5060254;28;20079;-89
2022/06/20 00:21:56;;;;;;;4.35;1.25;;;14.60;99.90;;;;;;5084777;28;20131;-90
2022/06/20 00:24:29;;;;;;;3.35;1.10;;;14.60;99.90;;;;;;5059952;28;20066;-89
2022/06/20 00:27:06;;;;;;;5.03;1.30;;;14.60;99.90;;;;;;5087076;28;20055;-89
2022/06/20 00:29:47;;;;;;;5.95;1.30;;;14.20;99.90;;;;;;5091007;28;20054;-90
2022/06/20 00:32:13;;;;;;;6.32;1.50;;;14.60;99.90;;;;;;5085557;28;20412;-90
2022/06/20 00:34:52;;;;;;;;;;;;;;;;;;;;;
2022/06/20 00:37:27;;;;;;;5.57;1.50;;;14.60;99.90;;;;;;5095739;28;20485;-90
2022/06/20 00:39:58;;;;;;;4.90;1.70;;;14.60;99.90;;;;;;5075248;28;20450;-89
2022/06/20 00:42:40;;;;;;;4.80;1.45;;;14.60;99.90;;;;;;5092127;28;20577;-89
2022/06/20 00:45:22;;;;;;;4.18;1.23;;;14.50;99.90;;;;;;5062139;28;20055;-91
2022/06/20 00:48:02;;;;;;;;;;;;;;;;;;;;;
2022/06/20 00:50:39;;;;;;;6.95;1.50;;;14.50;99.90;;;;;;5102551;27;20063;-90
2022/06/20 00:53:46;;;;;;;5.60;1.52;;;14.50;99.90;;;;;;5110062;27;20058;-89
2022/06/20 00:56:29;;;;;;;8.23;1.80;;;14.50;99.90;;;;;;5101227;27;20190;-89
2022/06/20 00:59:09;;;;;;;4.75;1.73;;;14.50;99.90;;;;;;5102190;27;20059;-89
2022/06/20 01:01:45;;;;;;;7.18;2.25;;;14.40;99.90;;;;;;5100117;27;20082;-90
2022/06/20 01:04:25;;;;;;;;;;;14.50;99.90;;;;;;5101176;27;20054;-88
2022/06/20 01:06:56;;;;;;;4.25;1.42;;;14.40;99.90;;;;;;5095291;27;19927;-90
2022/06/20 01:09:33;;;;;;;5.55;1.70;;;13.90;99.90;;;;;;5111283;27;20036;-89
2022/06/20 01:12:04;;;;;;;7.07;2.00;;;14.40;99.90;;;;;;5097883;27;20051;-89
2022/06/20 01:14:51;;;;;;;4.72;1.67;;;14.40;99.90;;;;;;5100129;27;20077;-89
2022/06/20 01:17:43;;;;;;;4.80;1.67;;;14.00;99.90;;;;;;5093125;27;20047;-89
2022/06/20 01:20:17;;;;;;;6.38;2.03;;;14.50;99.90;;;;;;5078175;27;20099;-89
2022/06/20 01:23:22;;;;;;;8.75;1.90;;;14.40;99.90;;;;;;5096587;27;20051;-90
2022/06/20 01:26:17;;;;;;;6.80;1.77;;;14.40;99.90;;;;;;5100181;27;20090;-89
2022/06/20 01:28:54;;;;;;;6.95;2.15;;;14.40;99.90;;;;;;5089952;27;20066;-89
2022/06/20 01:31:38;;;;;;;6.13;2.08;;;13.90;99.90;;;;;;5082381;27;20392;-89
2022/06/20 01:34:07;;;;;;;6.72;1.80;;;14.40;99.90;;;;;;5092275;27;20047;-89
2022/06/20 01:39:37;;;;;;;;;;;;;;;;;;;;;
2022/06/20 01:42:19;;;;;;;4.88;1.90;;;14.40;99.90;;;;;;5112915;27;20086;-89
2022/06/20 01:44:58;;;;;;;4.28;2.05;;;13.50;99.90;;;;;;5098873;27;20062;-88
2022/06/20 01:47:38;;;;;;;4.88;1.55;;;14.30;99.90;;;;;;5103940;27;20054;-89
2022/06/20 01:50:25;;;;;;;;;;;;;;;;;;;;;
2022/06/20 01:53:03;;;;;;;;;;;;;;;;;;;;;
2022/06/20 01:55:34;;;;;;;5.82;1.73;;;14.30;99.90;;;;;;5116670;27;20125;-88
2022/06/20 01:58:09;;;;;;;4.22;1.83;;;13.40;99.90;;;;;;5089200;27;20139;-91
2022/06/20 02:00:36;;;;;;;4.78;1.90;;;14.20;99.90;;;;;;5098495;27;20051;-91
2022/06/20 02:03:18;;;;;;;3.85;1.80;;;14.20;99.90;;;;;;5094440;27;20055;-89
2022/06/20 02:06:00;;;;;;;4.40;1.70;;;14.20;99.90;;;;;;5109298;27;20043;-89
2022/06/20 02:08:31;;;;;;;5.07;1.60;;;14.20;99.90;;;;;;5097866;27;20070;-89
2022/06/20 02:11:18;;;;;;;5.45;1.50;;;14.20;99.90;;;;;;5094954;27;20050;-89
2022/06/20 02:13:52;;;;;;;5.22;1.90;;;14.10;99.90;;;;;;5095339;27;20046;-91
2022/06/20 02:16:31;;;;;;;3.47;1.58;;;14.10;99.90;;;;;;5104931;27;20057;-88
2022/06/20 02:19:03;;;;;;;4.43;1.83;;;14.00;99.90;;;;;;5094803;27;20051;-89
2022/06/20 02:21:39;;;;;;;5.00;2.30;;;14.10;99.90;;;;;;5095307;27;20043;-89
2022/06/20 02:24:14;;;;;;;7.65;2.25;;;14.00;99.90;;;;;;5097491;27;20052;-90
2022/06/20 02:26:48;;;;;;;7.93;2.17;;;14.00;99.90;;;;;;5094547;27;20602;-89
2022/06/20 02:29:26;;;;;;;7.40;2.28;;;14.00;99.90;;;;;;5086772;27;20083;-90
2022/06/20 02:32:00;;;;;;;4.80;1.90;;;14.00;99.90;;;;;;5090659;27;20083;-89
2022/06/20 02:34:50;;;;;;;7.13;2.05;;;14.00;99.90;;;;;;5114633;27;20051;-90
2022/06/20 02:37:25;;;;;;;7.82;2.13;;;13.90;99.90;;;;;;5094646;27;20096;-90
2022/06/20 02:40:05;;;;;;;5.65;2.25;;;14.00;99.90;;;;;;5087979;27;20046;-90
2022/06/20 02:42:47;;;;;;;5.63;2.30;;;13.90;99.90;;;;;;5091575;27;20051;-90
2022/06/20 02:45:20;;;;;;;6.22;2.38;;;13.50;99.90;;;;;;5108999;27;20088;-90
2022/06/20 02:47:51;;;;;;;6.90;2.25;;;13.80;99.90;;;;;;5083771;27;20438;-89
2022/06/20 02:50:25;;;;;;;6.13;2.08;;;13.70;99.90;;;;;;5109330;27;20067;-89
2022/06/20 02:53:11;;;;;;;5.78;2.30;;;13.70;99.90;;;;;;5091575;27;20035;-90
2022/06/20 02:55:43;;;;;;;5.90;2.55;;;13.80;99.90;;;;;;5093453;27;20047;-89
2022/06/20 02:58:41;;;;;;;6.70;2.65;;;13.70;99.90;;;;;;5091502;27;20043;-90
2022/06/20 03:01:56;;;;;;;;;;;;;;;;;;;;;
2022/06/20 03:04:27;;;;;;;7.57;2.85;;;13.70;99.90;;;;;;5097622;27;20066;-91
2022/06/20 03:07:07;;;;;;;9.13;2.55;;;13.20;99.90;;;;;;5090564;27;20138;-89
2022/06/20 03:09:39;;;;;;;6.85;2.80;;;13.70;99.90;;;;;;5088181;27;20051;-90
2022/06/20 03:12:14;;;;;;;8.20;2.40;;;13.70;99.90;;;;;;5088088;27;20051;-89
2022/06/20 03:15:01;;;;;;;7.05;2.42;;;13.10;99.90;;;;;;5089717;27;20107;-90
2022/06/20 03:17:29;;;;;;;8.85;2.50;;;13.80;99.90;;;;;;5109211;27;20079;-89
2022/06/20 03:20:11;;;;;;;7.07;2.60;;;13.70;99.90;;;;;;5095610;27;20374;-90
2022/06/20 03:22:56;;;;;;;7.68;2.53;;;12.80;99.90;;;;;;5087927;27;20076;-91
2022/06/20 03:25:28;;;;;;;9.95;3.58;;;13.60;99.90;;;;;;5092653;27;20042;-90
2022/06/20 03:28:01;;;;;;;5.97;2.40;;;13.60;99.90;;;;;;5094260;27;20376;-90
2022/06/20 03:30:39;;;;;;;9.82;2.53;;;13.60;99.90;;;;;;5075079;27;20047;-90
2022/06/20 03:33:24;;;;;;;;;;;;;;;;;;;;;
2022/06/20 03:35:51;;;;;;;6.25;2.70;;;13.60;99.90;;;;;;5127386;27;20053;-89
2022/06/20 03:38:21;;;;;;;5.50;2.72;;;13.60;99.90;;;;;;5094592;27;20055;-90
2022/06/20 03:40:57;;;;;;;8.77;2.67;;;13.60;99.90;;;;;;5090990;27;20094;-91
2022/06/20 03:43:30;;;;;;;6.35;2.65;;;13.60;99.90;;;;;;5090286;27;20055;-89
2022/06/20 03:46:10;;;;;;;6.97;2.72;;;13.20;99.90;;;;;;5094630;28;20053;-91
2022/06/20 03:48:41;;;;;;;8.40;2.78;;;13.60;99.90;;;;;;5098263;27;20066;-90
2022/06/20 03:51:24;;;;;;;9.15;2.60;;;13.70;99.90;;;;;;5090660;27;20059;-89
2022/06/20 03:54:12;;;;;;;8.75;2.80;;;13.60;99.90;;;;;;5095417;27;20054;-90
2022/06/20 03:56:50;;;;;;;9.23;3.05;;;13.60;99.90;;;;;;5113175;28;20071;-90
2022/06/20 03:59:35;;;;;;;11.73;3.33;;;13.90;99.90;;;;;;5109337;28;20050;-90
2022/06/20 04:02:43;;;;;;;9.50;2.63;;;13.70;99.90;;;;;;5095333;28;20369;-90
2022/06/20 04:05:35;;;;;;;6.90;2.88;;;14.60;99.90;;;;;;5053799;28;20047;-90
2022/06/20 04:08:14;;;;;;;8.05;2.70;;;13.80;99.90;;;;;;5092047;28;20042;-89
2022/06/20 04:11:06;;;;;;;9.65;2.95;;;13.80;99.90;;;;;;5099630;28;20464;-89
2022/06/20 04:13:43;;;;;;;10.40;2.55;;;13.90;99.90;;;;;;5091618;28;20586;-88
2022/06/20 04:16:34;;;;;;;12.07;2.42;;;14.00;99.90;;;;;;5099072;28;20054;-91
2022/06/20 04:19:29;;;;;;;8.98;2.67;;;14.00;99.90;;;;;;5110749;28;20045;-91
2022/06/20 04:22:13;;;;;;;5.47;2.53;;;14.00;99.90;;;;;;5108477;28;20133;-90
2022/06/20 04:24:45;;;;;;;6.97;2.15;;;14.00;99.90;;;;;;5087377;28;20042;-89
2022/06/20 04:30:43;;;;;;;7.00;2.42;;;14.00;99.90;;;;;;5125337;28;20042;-90
2022/06/20 04:33:41;;;;;;;5.05;2.60;;;14.00;99.90;;;;;;5093641;28;20055;-90
2022/06/20 04:36:37;;;;;;;5.22;2.35;;;14.00;99.90;;;;;;5092654;28;20111;-91
2022/06/20 04:39:42;;;;;;;7.63;2.10;;;14.10;99.90;;;;;;5088585;28;20056;-89
2022/06/20 04:43:01;;;;;;;7.85;2.40;;;14.10;99.90;;;;;;5090903;28;20059;-91
2022/06/20 04:45:32;;;;;;;6.35;2.50;;;13.70;99.90;;;;;;5092420;28;20062;-90
2022/06/20 04:48:16;;;;;;;5.88;2.28;;;14.10;99.90;;;;;;5105982;28;20096;-89
2022/06/20 04:50:49;;;;;;;7.07;2.38;;;14.20;99.90;;;;;;5091192;28;20054;-89
2022/06/20 04:53:33;;;;;;;5.88;2.20;;;14.20;99.90;;;;;;5087451;28;20621;-89
2022/06/20 04:56:15;;;;;;;7.45;2.00;;;14.20;99.90;;;;;;5095041;27;20051;-91
2022/06/20 04:58:52;;;;;;;6.78;2.00;;;14.30;99.90;;;;;;5112133;27;20126;-90
2022/06/20 05:01:29;;;;;;;;;;;;;;;;;;;;;
2022/06/20 05:04:31;;;;;;;8.52;2.30;;;14.40;99.90;;;;;;5111370;27;20043;-90
2022/06/20 05:07:04;;;;;;;5.70;2.20;;;14.60;99.90;;;;;;5095954;27;20047;-90
2022/06/20 05:10:05;;;;;;;6.88;2.63;;;14.40;99.90;;;;;;5098985;27;20043;-90
2022/06/20 05:12:57;;;;;;;5.95;2.92;;;14.60;99.90;;;;;;5116949;27;20078;-89
2022/06/20 05:15:42;;;;;;;7.07;2.35;;;14.60;99.90;;;;;;5096853;27;20377;-89
2022/06/20 05:18:36;;;;;;;7.50;2.65;;;14.60;99.90;;;;;;5091972;27;20043;-89
2022/06/20 05:21:38;;;;;;;7.32;2.53;;;14.60;99.90;;;;;;5091114;27;20035;-90
2022/06/20 05:24:40;;;;;;;7.32;2.33;;;14.70;99.90;;;;;;5080990;27;20077;-89
2022/06/20 05:30:36;;;;;;;;;;;;;;;;;;;;;
2022/06/20 05:33:06;;;;;;;9.63;2.80;;;14.70;99.90;;;;;;5112940;27;20043;-89
2022/06/20 05:36:14;;;;;;;9.95;3.08;;;14.10;99.90;;;;;;5097867;27;20106;-88
2022/06/20 05:39:19;;;;;;;7.05;2.50;;;14.90;99.90;;;;;;5073923;27;20086;-88
2022/06/20 05:41:49;;;;;;;7.68;2.25;;;14.90;99.90;;;;;;5119365;27;20071;-88
2022/06/20 05:44:26;;;;;;;7.28;2.50;;;15.10;99.90;;;;;;5094701;27;20501;-89
2022/06/20 05:47:02;;;;;;;8.55;2.88;;;15.10;99.90;;;;;;5090453;27;20130;-90
2022/06/20 05:50:17;;;;;;;;;;;;;;;;;;;;;
2022/06/20 05:53:05;;;;;;;8.00;2.28;;;15.00;99.90;;;;;;5069888;27;20054;-90
2022/06/20 05:55:56;;;;;;;5.95;2.20;;;15.40;99.90;;;;;;5096050;27;20039;-89
2022/06/20 05:58:50;;;;;;;7.18;2.10;;;15.40;99.90;;;;;;5109993;27;20118;-88
2022/06/20 06:01:22;;;;;;;4.57;2.40;;;15.40;99.90;;;;;;5109788;27;20078;-88
2022/06/20 06:04:03;;;;;;;5.95;2.03;;;15.30;99.90;;;;;;5092896;27;20054;-89
2022/06/20 06:06:55;;;;;;;11.77;2.53;;;15.60;99.90;;;;;;5098231;27;20130;-88
2022/06/20 06:10:04;;;;;;;8.43;2.20;;;15.70;99.90;;;;;;5093042;27;20043;-88
2022/06/20 06:12:45;;;;;;;6.45;2.17;;;15.20;99.90;;;;;;5094464;27;20051;-88
2022/06/20 06:15:39;;;;;;;7.38;2.15;;;15.70;99.90;;;;;;5093978;27;20480;-90
2022/06/20 06:21:18;;;;;;;5.43;1.70;;;15.80;99.90;;;;;;5096859;27;20108;-87
2022/06/20 06:24:07;;;;;;;6.57;1.90;;;16.00;99.90;;;;;;5081619;27;20285;-88
2022/06/20 06:27:15;;;;;;;;;;;;;;;;;;;;;
2022/06/20 06:30:01;;;;;;;5.43;2.10;;;16.20;99.90;;;;;;5125149;27;20376;-89
2022/06/20 06:32:45;;;;;;;;;;;;;;;;;;;;;
2022/06/20 06:35:36;;;;;;;6.60;2.10;;;16.30;99.90;;;;;;5111230;27;20544;-90
2022/06/20 06:38:19;;;;;;;4.95;1.88;;;15.60;99.90;;;;;;5090053;27;20055;-88
2022/06/20 06:41:07;;;;;;;5.25;2.00;;;16.40;99.90;;;;;;5106534;27;20095;-89
2022/06/20 06:43:54;;;;;;;;;;;;;;;;;;;;;
2022/06/20 06:47:02;;;;;;;6.75;2.03;;;16.50;99.90;;;;;;5106842;27;20055;-89
2022/06/20 06:49:39;;;;;;;;;;;16.60;99.90;;;;;;5095689;27;20504;-88
2022/06/20 06:52:29;;;;;;;6.78;1.55;;;16.60;99.90;;;;;;5086646;28;20049;-89
2022/06/20 06:55:03;;;;;;;5.18;1.50;;;16.70;99.90;;;;;;5090256;28;20789;-88
2022/06/20 06:57:45;;;;;;;5.60;1.60;;;16.70;99.90;;;;;;5088898;28;20067;-89
2022/06/20 07:00:40;;;;;;;6.78;1.77;;;16.80;99.90;;;;;;5085859;28;20044;-88
2022/06/20 07:03:32;;;;;;;5.72;1.83;;;16.80;99.90;;;;;;5081935;28;20507;-89
2022/06/20 07:06:04;;;;;;;4.13;1.45;;;16.90;99.90;;;;;;5092786;28;20067;-88
2022/06/20 07:09:00;;;;;;;3.38;1.42;;;17.00;99.90;;;;;;5091320;28;20083;-89
2022/06/20 07:11:30;;;;;;;3.17;1.13;;;17.00;99.90;;;;;;5088217;28;20048;-88
2022/06/20 07:14:13;;;;;;;4.03;1.38;;;17.70;99.90;;;;;;5103847;28;20051;-89
2022/06/20 07:17:11;;;;;;;4.05;1.50;;;17.20;99.90;;;;;;5107891;28;20044;-89
2022/06/20 07:19:43;;;;;;;7.53;1.95;;;17.30;99.90;;;;;;5095973;28;20060;-87
2022/06/20 07:22:30;;;;;;;8.05;1.60;;;17.40;99.90;;;;;;5086130;28;20055;-90
2022/06/20 07:24:59;;;;;;;4.55;1.60;;;17.60;99.90;;;;;;5074776;28;20043;-89
2022/06/20 07:27:36;;;;;;;5.25;1.70;;;17.10;99.90;;;;;;5112627;28;20063;-87
2022/06/20 07:30:38;;;;;;;4.32;1.58;;;17.80;99.90;;;;;;5092527;28;20051;-89
2022/06/20 07:33:25;;;;;;;6.93;1.55;;;17.80;99.90;;;;;;5099078;28;20535;-88
2022/06/20 07:35:57;;;;;;;8.90;1.83;;;18.20;99.90;;;;;;5093463;28;20039;-88
2022/06/20 07:38:37;;;;;;;4.82;1.52;;;17.80;99.90;;;;;;5086656;28;20047;-89
2022/06/20 07:41:28;;;;;;;4.63;1.67;;;18.40;99.90;;;;;;5090231;28;20044;-88
2022/06/20 07:44:13;;;;;;;7.28;1.52;;;18.00;99.90;;;;;;5088708;28;20051;-88
2022/06/20 07:47:08;;;;;;;5.93;1.40;;;18.40;99.90;;;;;;5084811;28;20063;-88
2022/06/20 07:49:58;;;;;;;6.18;1.60;;;18.40;99.90;;;;;;5087467;28;20126;-88
2022/06/20 07:52:52;;;;;;;3.95;1.20;;;18.70;99.90;;;;;;5074167;28;20051;-89
2022/06/20 07:55:23;;;;;;;4.65;1.60;;;18.80;99.90;;;;;;5102163;28;20086;-88
2022/06/20 07:58:37;;;;;;;6.40;1.70;;;18.70;99.90;;;;;;5087749;28;20044;-89
2022/06/20 08:01:27;;;;;;;5.07;2.00;;;18.70;99.90;;;;;;5103330;28;20059;-88
2022/06/20 08:04:09;;;;;;;4.05;1.75;;;18.60;99.90;;;;;;5088523;28;20126;-89
2022/06/20 08:06:43;;;;;;;3.85;1.13;;;18.40;99.90;;;;;;5087296;28;20040;-89
2022/06/20 08:09:25;;;;;;;4.95;1.63;;;18.50;99.90;;;;;;5090630;28;20048;-88
2022/06/20 08:12:23;;;;;;;;;;;;;;;;;;;;;
2022/06/20 08:15:36;;;;;;;3.80;1.35;;;19.00;99.90;;;;;;5104987;28;20047;-88
2022/06/20 08:18:07;;;;;;;4.97;1.40;;;19.20;99.90;;;;;;5068561;28;20392;-88
2022/06/20 08:20:41;;;;;;;3.72;1.42;;;19.40;99.90;;;;;;5090164;28;20036;-89
2022/06/20 08:23:58;;;;;;;4.15;1.70;;;19.40;99.90;;;;;;5107070;28;20040;-89
2022/06/20 08:27:19;;;;;;;4.03;1.30;;;19.50;99.90;;;;;;5084927;28;20054;-88
2022/06/20 08:30:21;;;;;;;;;;;;;;;;;;;;;
2022/06/20 08:33:19;;;;;;;;;;;;;;;;;;;;;
2022/06/20 08:36:06;;;;;;;3.30;1.48;;;19.50;99.90;;;;;;5105237;28;20093;-89
2022/06/20 08:39:33;;;;;;;5.72;1.50;;;19.40;99.90;;;;;;5108318;28;20055;-89
2022/06/20 08:42:39;;;;;;;6.15;1.45;;;19.70;99.90;;;;;;5088175;28;20090;-92
2022/06/20 08:45:40;;;;;;;6.90;1.77;;;19.80;99.90;;;;;;5095817;28;20507;-90
2022/06/20 08:48:41;;;;;;;6.93;1.80;;;20.20;99.90;;;;;;5118008;28;20078;-89
2022/06/20 08:52:06;;;;;;;7.93;1.98;;;20.30;99.90;;;;;;5100207;28;20070;-89
2022/06/20 08:54:59;;;;;;;;;;;;;;;;;;;;;
2022/06/20 08:58:25;;;;;;;;;;;;;;;;;;;;;
2022/06/20 09:01:17;;;;;;;4.47;1.63;;;21.00;99.90;;;;;;5113208;28;20046;-91
2022/06/20 09:04:20;;;;;;;5.40;1.60;;;20.80;99.90;;;;;;5089972;28;20040;-91
2022/06/20 09:07:10;;;;;;;5.85;1.70;;;20.70;99.90;;;;;;5106635;28;20055;-90
2022/06/20 09:10:00;;;;;;;4.32;1.45;;;20.30;99.90;;;;;;5094463;28;20046;-91
2022/06/20 09:12:46;;;;;;;7.85;1.88;;;21.30;99.90;;;;;;5091169;28;20047;-89
2022/06/20 09:15:39;;;;;;;5.28;1.80;;;21.20;99.90;;;;;;5111228;28;20081;-92
2022/06/20 09:18:28;;;;;;;5.47;1.52;;;21.00;99.90;;;;;;5106613;28;20052;-90
2022/06/20 09:21:41;;;;;;;6.32;1.73;;;21.10;99.90;;;;;;5116276;28;20078;-90
2022/06/20 09:24:56;;;;;;;5.00;1.50;;;21.20;99.90;;;;;;5107982;28;20143;-89
2022/06/20 09:27:51;;;;;;;;;;;;;;;;;;;;;
2022/06/20 09:30:54;;;;;;;4.38;1.90;;;21.40;99.90;;;;;;5109819;28;20048;-90
2022/06/20 09:33:37;;;;;;;5.75;1.30;;;21.20;99.90;;;;;;5086876;28;20099;-91
2022/06/20 09:36:28;;;;;;;4.43;1.30;;;21.00;99.90;;;;;;5092032;28;20538;-91
2022/06/20 09:39:46;;;;;;;3.92;1.50;;;20.70;99.90;;;;;;5090134;28;20058;-88
2022/06/20 09:42:42;;;;;;;3.50;1.27;;;20.50;99.90;;;;;;5092438;28;20538;-90
2022/06/20 09:45:49;;;;;;;3.92;1.40;;;20.30;99.90;;;;;;5095899;28;20051;-90
2022/06/20 09:48:32;;;;;;;4.43;1.48;;;20.90;99.90;;;;;;5080570;28;20055;-89
2022/06/20 09:51:07;;;;;;;7.10;1.50;;;20.80;99.90;;;;;;5096852;28;20120;-89
2022/06/20 09:54:10;;;;;;;3.75;1.33;;;20.80;99.90;;;;;;5097970;28;20094;-89
2022/06/20 09:57:21;;;;;;;3.50;1.60;;;21.80;99.90;;;;;;5108211;28;20043;-89
2022/06/20 10:00:09;;;;;;;4.63;1.58;;;21.20;99.90;;;;;;5087400;28;20071;-89
2022/06/20 10:02:56;;;;;;;4.47;1.48;;;20.80;99.90;;;;;;5087021;28;20043;-90
2022/06/20 10:05:43;;;;;;;5.68;1.60;;;20.60;99.90;;;;;;5088009;28;20055;-90
2022/06/20 10:08:48;;;;;;;5.00;1.50;;;20.50;99.90;;;;;;5088948;28;20043;-89
2022/06/20 10:11:39;;;;;;;3.92;1.40;;;20.90;99.90;;;;;;5109444;28;20118;-90
2022/06/20 10:14:45;;;;;;;3.85;1.80;;;21.10;99.90;;;;;;5094206;28;20051;-90
2022/06/20 10:17:37;;;;;;;4.10;1.50;;;21.00;99.90;;;;;;5118414;27;20044;-90
2022/06/20 10:20:34;;;;;;;;;;;;;;;;;;;;;
2022/06/20 10:26:49;;;;;;;;;;;;;;;;;;;;;
2022/06/20 10:29:57;;;;;;;;;;;;;;;;;;;;;
2022/06/20 10:32:43;;;;;;;3.80;1.30;;;21.50;99.90;;;;;;5110770;28;20059;-87
2022/06/20 10:35:46;;;;;;;3.92;1.27;;;21.80;99.30;;;;;;5102977;28;20051;-92
2022/06/20 10:38:33;;;;;;;4.57;1.40;;;22.10;98.80;;;;;;5089872;28;20096;-91
2022/06/20 10:41:12;;;;;;;4.05;1.20;;;22.30;98.10;;;;;;5089479;28;20101;-91
2022/06/20 10:44:29;;;;;;;3.97;1.05;;;22.60;98.20;;;;;;5091494;28;20075;-92
2022/06/20 10:47:37;;;;;;;3.33;1.48;;;22.80;97.50;;;;;;5110739;28;20476;-93
2022/06/20 10:50:37;;;;;;;5.68;1.48;;;23.10;97.20;;;;;;5069401;28;20059;-91
2022/06/20 10:53:22;;;;;;;3.35;1.25;;;23.30;96.80;;;;;;5071597;28;20090;-91
2022/06/20 10:56:31;;;;;;;4.40;1.35;;;23.20;96.40;;;;;;5091865;28;20055;-91
2022/06/20 10:59:37;;;;;;;4.32;1.58;;;23.20;96.30;;;;;;5086250;28;20065;-92
2022/06/20 11:02:05;;;;;;;4.82;1.60;;;22.80;96.60;;;;;;5105088;28;20043;-91
2022/06/20 11:04:55;;;;;;;3.85;1.20;;;23.20;96.80;;;;;;5090725;28;20043;-91
2022/06/20 11:07:43;;;;;;;3.03;1.20;;;23.40;96.20;;;;;;5099716;28;20113;-92
2022/06/20 11:10:43;;;;;;;;;;;;;;;;;;;;;
2022/06/20 11:13:17;;;;;;;4.78;1.08;;;23.50;95.90;;;;;;5105920;28;20052;-92
2022/06/20 11:16:13;;;;;;;;;;;;;;;;;;;;;
2022/06/20 11:18:59;;;;;;;4.10;1.30;;;23.10;95.50;;;;;;5108664;28;20048;-91
2022/06/20 11:22:24;;;;;;;4.72;1.40;;;23.40;96.30;;;;;;5086845;28;20476;-89
2022/06/20 11:25:23;;;;;;;3.45;1.20;;;22.90;96.10;;;;;;5024003;28;20127;-91
2022/06/20 11:27:54;;;;;;;3.42;1.30;;;22.70;96.60;;;;;;5033964;28;20052;-91
2022/06/20 11:30:27;;;;;;;3.40;1.20;;;22.40;96.80;;;;;;5084023;28;20110;-91
2022/06/20 11:33:13;;;;;;;3.38;1.00;;;22.20;96.60;;;;;;5086668;28;20135;-91
2022/06/20 11:36:15;;;;;;;;;;;;;;;;;;;;;
2022/06/20 11:38:47;;;;;;;3.60;1.13;;;22.90;95.70;;;;;;5109597;28;20515;-91
2022/06/20 11:41:44;;;;;;;4.63;1.20;;;23.20;95.50;;;;;;5090240;28;20498;-91
2022/06/20 11:45:18;;;;;;;2.35;1.15;;;23.30;95.30;;;;;;5110772;28;20277;-91
2022/06/20 11:48:15;;;;;;;3.22;1.20;;;23.40;95.30;;;;;;5051079;28;20059;-92
2022/06/20 11:50:47;;;;;;;2.85;1.08;;;23.30;94.80;;;;;;5092163;28;21096;-91
2022/06/20 11:53:42;;;;;;;3.40;1.30;;;23.10;94.90;;;;;;5093960;28;20048;-89
2022/06/20 11:56:23;;;;;;;5.23;1.10;;;23.30;95.00;;;;;;5108831;28;20047;-80
2022/06/20 11:59:01;;;;;;;4.43;1.50;;;23.50;94.80;;;;;;5087076;28;20289;-80
2022/06/20 12:01:43;;;;;;;4.30;1.50;;;23.90;94.60;;;;;;5089568;28;20043;-80
2022/06/20 12:04:29;;;;;;;4.82;1.50;;;24.10;94.40;;;;;;5106525;28;20044;-80
2022/06/20 12:07:06;;;;;;;3.23;1.20;;;24.50;93.90;;;;;;5098586;28;20455;-81
2022/06/20 12:09:40;;;;;;;4.05;1.30;;;24.80;94.00;;;;;;5102041;28;20040;-80
2022/06/20 12:12:30;;;;;;;4.05;1.30;;;24.80;93.50;;;;;;5103382;28;20393;-80
2022/06/20 12:15:14;;;;;;;5.22;1.55;;;24.80;93.00;;;;;;5105690;28;20036;-82
2022/06/20 12:17:57;;;;;;;2.67;1.30;;;25.10;92.90;;;;;;5085592;28;20070;-81
2022/06/20 12:23:25;;;;;;;4.20;1.27;;;25.70;92.60;;;;;;5103180;28;20044;-80
2022/06/20 12:25:57;;;;;;;4.55;1.63;;;26.00;92.00;;;;;;5103218;28;20040;-80
2022/06/20 12:28:26;;;;;;;2.63;1.20;;;26.00;91.30;;;;;;5075860;28;20063;-81
2022/06/20 12:31:22;;;;;;;3.28;1.33;;;26.10;91.40;;;;;;5091921;28;20135;-82
2022/06/20 12:34:32;;;;;;;3.73;1.20;;;26.00;90.50;;;;;;5065029;28;20535;-81
2022/06/20 12:37:03;;;;;;;5.35;1.48;;;26.00;90.90;;;;;;5073687;28;20181;-81
2022/06/20 12:39:37;;;;;;;3.63;1.20;;;25.80;91.20;;;;;;5092169;28;20135;-80
2022/06/20 12:42:18;;;;;;;3.53;1.17;;;25.80;90.90;;;;;;5091936;28;20044;-81
2022/06/20 12:45:21;;;;;;;4.60;1.25;;;25.50;90.70;;;;;;5065666;28;20075;-81
2022/06/20 12:48:43;;;;;;;3.03;1.23;;;25.50;90.70;;;;;;5088605;28;20044;-81
2022/06/20 12:51:37;;;;;;;4.35;1.38;;;25.60;90.40;;;;;;5028493;28;20872;-81
2022/06/20 12:54:41;;;;;;;3.05;1.30;;;25.50;90.00;;;;;;5092587;28;20135;-80
2022/06/20 12:57:20;;;;;;;3.78;1.30;;;25.50;89.80;;;;;;5088539;28;20048;-82
2022/06/20 12:59:49;;;;;;;3.10;1.33;;;25.70;90.10;;;;;;5094043;28;20049;-82
2022/06/20 13:02:32;;;;;;;2.90;1.10;;;25.60;90.20;;;;;;5076730;28;20051;-82
2022/06/20 13:05:27;;;;;;;4.05;1.20;;;25.50;89.30;;;;;;5071654;28;20067;-82
2022/06/20 13:08:31;;;;;;;4.72;1.20;;;25.50;88.50;;;;;;5056374;28;20160;-83
2022/06/20 13:11:22;;;;;;;3.97;1.02;;;25.80;89.80;;;;;;5075051;28;20054;-82
2022/06/20 13:14:15;;;;;;;5.40;1.35;;;25.80;89.50;;;;;;5054806;28;20147;-82
2022/06/20 13:17:01;;;;;;;5.55;1.30;;;25.80;89.00;;;;;;5089977;28;20039;-82
2022/06/20 13:19:55;;;;;;;4.05;1.50;;;25.40;88.90;;;;;;5074445;28;20477;-83
2022/06/20 13:22:40;;;;;;;6.47;1.63;;;25.30;89.10;;;;;;5074620;28;20047;-83
2022/06/20 13:25:32;;;;;;;4.05;1.45;;;25.20;89.80;;;;;;5076220;28;20580;-85
2022/06/20 13:28:21;;;;;;;4.60;1.35;;;25.50;90.10;;;;;;5070617;28;20062;-84
2022/06/20 13:31:05;;;;;;;3.67;1.20;;;25.90;89.20;;;;;;5091564;28;20110;-84
2022/06/20 13:33:38;;;;;;;3.25;1.33;;;25.90;88.40;;;;;;5080485;28;20046;-84
2022/06/20 13:36:24;;;;;;;4.60;1.30;;;25.70;87.40;;;;;;5078421;28;20125;-86
2022/06/20 13:38:53;;;;;;;;;;;25.50;85.50;;;;;;5084310;28;20051;-85
2022/06/20 13:41:33;;;;;;;3.15;1.20;;;25.50;88.40;;;;;;5084537;28;19924;-86
2022/06/20 13:44:12;;;;;;;4.72;1.27;;;25.40;88.00;;;;;;5083466;28;20048;-86
2022/06/20 13:47:16;;;;;;;4.72;1.40;;;25.50;86.90;;;;;;5105056;28;20069;-85
2022/06/20 13:50:19;;;;;;;4.63;1.38;;;25.30;88.20;;;;;;5102209;28;20055;-85
2022/06/20 13:52:51;;;;;;;3.33;1.17;;;25.10;86.10;;;;;;5086742;28;20126;-84
2022/06/20 13:55:19;;;;;;;3.95;1.00;;;25.10;87.60;;;;;;5082802;28;20051;-84
2022/06/20 13:58:11;;;;;;;4.78;1.30;;;25.00;87.70;;;;;;5102394;28;20136;-84
2022/06/20 14:00:37;;;;;;;4.03;1.20;;;25.10;87.50;;;;;;5087582;28;20040;-83
2022/06/20 14:03:19;;;;;;;4.00;1.20;;;25.20;87.50;;;;;;5102545;28;20081;-84
2022/06/20 14:05:47;;;;;;;2.85;1.00;;;25.50;86.30;;;;;;5082603;28;20127;-85
2022/06/20 14:08:12;;;;;;;5.20;1.42;;;25.50;86.00;;;;;;5104595;28;20374;-83
2022/06/20 14:11:00;;;;;;;3.65;1.20;;;25.30;86.90;;;;;;5084414;28;20039;-84
2022/06/20 14:13:30;;;;;;;4.13;1.45;;;25.40;86.60;;;;;;5095001;28;20052;-84
2022/06/20 14:16:28;;;;;;;4.03;1.33;;;25.50;86.90;;;;;;5083397;28;20055;-85
2022/06/20 14:19:22;;;;;;;3.33;1.45;;;25.50;86.60;;;;;;5085406;28;20064;-85
2022/06/20 14:21:53;;;;;;;3.95;1.30;;;25.30;84.80;;;;;;5098554;28;20477;-85
2022/06/20 14:24:30;;;;;;;4.90;1.63;;;25.00;86.90;;;;;;5103386;28;20516;-83
2022/06/20 14:27:03;;;;;;;2.78;1.25;;;24.80;87.30;;;;;;5079174;28;20751;-85
2022/06/20 14:29:35;;;;;;;4.38;1.25;;;24.70;87.80;;;;;;5083423;28;20048;-85
2022/06/20 14:32:27;;;;;;;5.28;1.50;;;25.00;88.30;;;;;;5101344;28;20545;-83
2022/06/20 14:37:45;;;;;;;5.05;1.58;;;25.20;87.90;;;;;;5104232;28;20051;-84
2022/06/20 14:40:25;;;;;;;5.07;1.42;;;24.80;88.40;;;;;;5082802;28;20119;-84
2022/06/20 14:43:08;;;;;;;6.97;1.90;;;24.70;89.10;;;;;;5105182;28;20492;-85
2022/06/20 14:45:48;;;;;;;4.93;1.70;;;24.30;89.50;;;;;;5105395;28;20054;-84
2022/06/20 14:48:27;;;;;;;5.72;1.63;;;24.10;90.20;;;;;;5084661;28;20400;-85
2022/06/20 14:51:12;;;;;;;5.57;1.42;;;24.10;90.10;;;;;;5098980;28;20126;-84
2022/06/20 14:54:00;;;;;;;7.13;1.60;;;24.10;89.70;;;;;;5085186;28;20070;-86
2022/06/20 14:56:41;;;;;;;4.85;1.60;;;23.90;89.80;;;;;;5081421;28;20052;-85
2022/06/20 14:59:35;;;;;;;5.20;1.50;;;23.90;90.00;;;;;;5085079;28;20058;-85
2022/06/20 15:02:28;;;;;;;4.43;1.50;;;23.90;89.30;;;;;;5081101;28;20040;-84
2022/06/20 15:05:17;;;;;;;4.80;1.52;;;23.70;89.20;;;;;;5083577;28;20051;-85
2022/06/20 15:07:49;;;;;;;5.35;1.80;;;23.70;90.10;;;;;;5080888;28;20074;-86
2022/06/20 15:10:39;;;;;;;7.47;2.03;;;23.90;90.20;;;;;;5086785;28;20144;-85
2022/06/20 15:13:39;;;;;;;4.85;1.60;;;24.40;89.10;;;;;;5082536;28;20639;-85
2022/06/20 15:16:18;;;;;;;5.00;1.20;;;24.20;90.00;;;;;;5082882;28;20133;-86
2022/06/20 15:18:48;;;;;;;4.97;1.55;;;24.30;89.70;;;;;;5102538;28;20075;-86